sensor_id;sensor_type;location;lat;lon;timestamp;P1;durP1;ratioP1;P2;durP2;ratioP2
27489;SDS011;14925;51.026;13.752;2023-03-16T00:01:18;23.13;;;7.25;;
27489;SDS011;14925;51.026;13.752;2023-03-16T00:03:45;18.52;;;7.43;;
27489;SDS011;14925;51.026;13.752;2023-03-16T00:06:13;18.55;;;7.35;;
27489;SDS011;14925;51.026;13.752;2023-03-16T00:08:39;16.27;;;7.40;;
27489;SDS011;14925;51.026;13.752;2023-03-16T00:11:07;19.35;;;7.97;;
27489;SDS011;14925;51.026;13.752;2023-03-16T00:13:36;19.90;;;8.00;;
27489;SDS011;14925;51.026;13.752;2023-03-16T00:16:01;18.20;;;8.07;;
27489;SDS011;14925;51.026;13.752;2023-03-16T00:18:31;17.88;;;7.63;;
27489;SDS011;14925;51.026;13.752;2023-03-16T00:21:05;19.85;;;7.53;;
27489;SDS011;14925;51.026;13.752;2023-03-16T00:23:33;20.50;;;7.65;;
27489;SDS011;14925;51.026;13.752;2023-03-16T00:26:04;16.08;;;7.20;;
27489;SDS011;14925;51.026;13.752;2023-03-16T00:28:33;17.65;;;8.20;;
27489;SDS011;14925;51.026;13.752;2023-03-16T00:31:00;21.88;;;7.93;;
27489;SDS011;14925;51.026;13.752;2023-03-16T00:33:40;11.67;;;5.77;;
27489;SDS011;14925;51.026;13.752;2023-03-16T00:36:09;15.55;;;7.32;;
27489;SDS011;14925;51.026;13.752;2023-03-16T00:38:38;21.33;;;8.15;;
27489;SDS011;14925;51.026;13.752;2023-03-16T00:41:09;17.40;;;8.13;;
27489;SDS011;14925;51.026;13.752;2023-03-16T00:43:40;14.25;;;7.70;;
27489;SDS011;14925;51.026;13.752;2023-03-16T00:46:08;20.48;;;8.02;;
27489;SDS011;14925;51.026;13.752;2023-03-16T00:48:34;16.83;;;7.43;;
27489;SDS011;14925;51.026;13.752;2023-03-16T00:51:01;20.10;;;8.60;;
27489;SDS011;14925;51.026;13.752;2023-03-16T00:53:30;20.10;;;8.63;;
27489;SDS011;14925;51.026;13.752;2023-03-16T00:56:02;19.10;;;8.13;;
27489;SDS011;14925;51.026;13.752;2023-03-16T00:58:29;19.92;;;8.30;;
27489;SDS011;14925;51.026;13.752;2023-03-16T01:01:03;17.90;;;8.52;;
27489;SDS011;14925;51.026;13.752;2023-03-16T01:03:33;18.83;;;7.95;;
27489;SDS011;14925;51.026;13.752;2023-03-16T01:06:03;15.82;;;7.60;;
27489;SDS011;14925;51.026;13.752;2023-03-16T01:08:32;17.88;;;8.20;;
27489;SDS011;14925;51.026;13.752;2023-03-16T01:11:03;17.50;;;8.95;;
27489;SDS011;14925;51.026;13.752;2023-03-16T01:13:32;17.23;;;8.77;;
27489;SDS011;14925;51.026;13.752;2023-03-16T01:15:58;22.48;;;9.15;;
27489;SDS011;14925;51.026;13.752;2023-03-16T01:18:28;22.30;;;9.65;;
27489;SDS011;14925;51.026;13.752;2023-03-16T01:21:02;25.67;;;9.80;;
27489;SDS011;14925;51.026;13.752;2023-03-16T01:23:38;18.88;;;9.18;;
27489;SDS011;14925;51.026;13.752;2023-03-16T01:26:09;25.23;;;9.73;;
27489;SDS011;14925;51.026;13.752;2023-03-16T01:28:35;19.55;;;8.50;;
27489;SDS011;14925;51.026;13.752;2023-03-16T01:31:02;18.83;;;8.90;;
27489;SDS011;14925;51.026;13.752;2023-03-16T01:33:31;22.50;;;8.70;;
27489;SDS011;14925;51.026;13.752;2023-03-16T01:36:01;18.15;;;8.60;;
27489;SDS011;14925;51.026;13.752;2023-03-16T01:38:33;20.08;;;8.93;;
27489;SDS011;14925;51.026;13.752;2023-03-16T01:40:59;17.75;;;8.82;;
27489;SDS011;14925;51.026;13.752;2023-03-16T01:43:26;20.50;;;8.63;;
27489;SDS011;14925;51.026;13.752;2023-03-16T01:48:32;30.42;;;10.05;;
27489;SDS011;14925;51.026;13.752;2023-03-16T01:51:14;25.17;;;9.93;;
27489;SDS011;14925;51.026;13.752;2023-03-16T01:53:45;17.30;;;9.33;;
27489;SDS011;14925;51.026;13.752;2023-03-16T01:56:19;19.80;;;9.70;;
27489;SDS011;14925;51.026;13.752;2023-03-16T01:58:51;26.48;;;9.90;;
27489;SDS011;14925;51.026;13.752;2023-03-16T02:01:18;22.58;;;9.65;;
27489;SDS011;14925;51.026;13.752;2023-03-16T02:03:44;18.10;;;9.65;;
27489;SDS011;14925;51.026;13.752;2023-03-16T02:06:19;24.25;;;11.00;;
27489;SDS011;14925;51.026;13.752;2023-03-16T02:08:47;20.23;;;9.88;;
27489;SDS011;14925;51.026;13.752;2023-03-16T02:11:14;21.67;;;9.25;;
27489;SDS011;14925;51.026;13.752;2023-03-16T02:13:43;19.85;;;9.32;;
27489;SDS011;14925;51.026;13.752;2023-03-16T02:16:12;25.08;;;10.55;;
27489;SDS011;14925;51.026;13.752;2023-03-16T02:18:43;20.77;;;10.50;;
27489;SDS011;14925;51.026;13.752;2023-03-16T02:21:25;21.48;;;10.07;;
27489;SDS011;14925;51.026;13.752;2023-03-16T02:23:58;27.98;;;11.27;;
27489;SDS011;14925;51.026;13.752;2023-03-16T02:31:53;24.48;;;11.55;;
27489;SDS011;14925;51.026;13.752;2023-03-16T02:34:20;29.55;;;10.48;;
27489;SDS011;14925;51.026;13.752;2023-03-16T02:36:48;26.30;;;12.43;;
27489;SDS011;14925;51.026;13.752;2023-03-16T02:39:17;24.13;;;11.10;;
27489;SDS011;14925;51.026;13.752;2023-03-16T02:41:55;30.52;;;12.88;;
27489;SDS011;14925;51.026;13.752;2023-03-16T02:44:26;17.83;;;10.15;;
27489;SDS011;14925;51.026;13.752;2023-03-16T02:46:53;25.27;;;12.10;;
27489;SDS011;14925;51.026;13.752;2023-03-16T02:49:25;24.00;;;12.63;;
27489;SDS011;14925;51.026;13.752;2023-03-16T02:51:54;19.00;;;9.00;;
27489;SDS011;14925;51.026;13.752;2023-03-16T02:54:21;32.08;;;13.23;;
27489;SDS011;14925;51.026;13.752;2023-03-16T02:56:47;23.27;;;12.60;;
27489;SDS011;14925;51.026;13.752;2023-03-16T02:59:18;32.03;;;13.23;;
27489;SDS011;14925;51.026;13.752;2023-03-16T03:01:44;31.80;;;13.52;;
27489;SDS011;14925;51.026;13.752;2023-03-16T03:04:11;31.27;;;14.80;;
27489;SDS011;14925;51.026;13.752;2023-03-16T03:06:37;24.38;;;12.25;;
27489;SDS011;14925;51.026;13.752;2023-03-16T03:09:08;24.80;;;13.00;;
27489;SDS011;14925;51.026;13.752;2023-03-16T03:11:40;25.75;;;13.73;;
27489;SDS011;14925;51.026;13.752;2023-03-16T03:14:05;24.20;;;12.35;;
27489;SDS011;14925;51.026;13.752;2023-03-16T03:16:34;27.85;;;13.85;;
27489;SDS011;14925;51.026;13.752;2023-03-16T03:18:59;24.30;;;13.63;;
27489;SDS011;14925;51.026;13.752;2023-03-16T03:21:25;31.25;;;14.50;;
27489;SDS011;14925;51.026;13.752;2023-03-16T03:23:50;25.90;;;13.20;;
27489;SDS011;14925;51.026;13.752;2023-03-16T03:26:39;23.73;;;13.23;;
27489;SDS011;14925;51.026;13.752;2023-03-16T03:29:09;19.75;;;11.38;;
27489;SDS011;14925;51.026;13.752;2023-03-16T03:31:34;21.35;;;11.45;;
27489;SDS011;14925;51.026;13.752;2023-03-16T03:34:03;26.50;;;12.73;;
27489;SDS011;14925;51.026;13.752;2023-03-16T03:36:32;26.98;;;14.02;;
27489;SDS011;14925;51.026;13.752;2023-03-16T03:38:58;24.10;;;12.15;;
27489;SDS011;14925;51.026;13.752;2023-03-16T03:41:26;27.17;;;13.65;;
27489;SDS011;14925;51.026;13.752;2023-03-16T03:43:52;23.27;;;11.95;;
27489;SDS011;14925;51.026;13.752;2023-03-16T03:46:20;24.40;;;12.35;;
27489;SDS011;14925;51.026;13.752;2023-03-16T03:48:46;23.60;;;11.95;;
27489;SDS011;14925;51.026;13.752;2023-03-16T03:51:13;21.35;;;11.75;;
27489;SDS011;14925;51.026;13.752;2023-03-16T03:53:39;23.35;;;12.27;;
27489;SDS011;14925;51.026;13.752;2023-03-16T03:56:06;24.45;;;11.90;;
27489;SDS011;14925;51.026;13.752;2023-03-16T03:58:32;21.05;;;12.13;;
27489;SDS011;14925;51.026;13.752;2023-03-16T04:01:00;24.60;;;12.20;;
27489;SDS011;14925;51.026;13.752;2023-03-16T04:03:31;25.13;;;12.32;;
27489;SDS011;14925;51.026;13.752;2023-03-16T04:05:56;21.17;;;12.05;;
27489;SDS011;14925;51.026;13.752;2023-03-16T04:08:22;26.33;;;12.50;;
27489;SDS011;14925;51.026;13.752;2023-03-16T04:10:53;20.23;;;11.77;;
27489;SDS011;14925;51.026;13.752;2023-03-16T04:13:19;19.50;;;12.10;;
27489;SDS011;14925;51.026;13.752;2023-03-16T04:15:47;25.90;;;11.63;;
27489;SDS011;14925;51.026;13.752;2023-03-16T04:18:18;23.15;;;12.65;;
27489;SDS011;14925;51.026;13.752;2023-03-16T04:20:46;21.90;;;11.13;;
27489;SDS011;14925;51.026;13.752;2023-03-16T04:23:14;22.25;;;11.25;;
27489;SDS011;14925;51.026;13.752;2023-03-16T04:25:41;23.60;;;12.40;;
27489;SDS011;14925;51.026;13.752;2023-03-16T04:28:10;26.83;;;12.38;;
27489;SDS011;14925;51.026;13.752;2023-03-16T04:30:35;22.73;;;12.80;;
27489;SDS011;14925;51.026;13.752;2023-03-16T04:33:01;24.42;;;12.80;;
27489;SDS011;14925;51.026;13.752;2023-03-16T04:35:29;30.17;;;12.68;;
27489;SDS011;14925;51.026;13.752;2023-03-16T04:37:56;26.65;;;12.00;;
27489;SDS011;14925;51.026;13.752;2023-03-16T04:40:24;23.48;;;12.95;;
27489;SDS011;14925;51.026;13.752;2023-03-16T04:42:50;24.70;;;11.93;;
27489;SDS011;14925;51.026;13.752;2023-03-16T04:45:16;26.27;;;11.95;;
27489;SDS011;14925;51.026;13.752;2023-03-16T04:47:44;21.27;;;12.48;;
27489;SDS011;14925;51.026;13.752;2023-03-16T04:50:13;27.17;;;14.05;;
27489;SDS011;14925;51.026;13.752;2023-03-16T04:52:39;25.30;;;13.98;;
27489;SDS011;14925;51.026;13.752;2023-03-16T04:55:05;27.38;;;13.40;;
27489;SDS011;14925;51.026;13.752;2023-03-16T04:57:30;28.20;;;13.80;;
27489;SDS011;14925;51.026;13.752;2023-03-16T04:59:56;26.58;;;12.70;;
27489;SDS011;14925;51.026;13.752;2023-03-16T05:02:21;26.88;;;13.65;;
27489;SDS011;14925;51.026;13.752;2023-03-16T05:04:47;31.70;;;14.23;;
27489;SDS011;14925;51.026;13.752;2023-03-16T05:07:15;27.35;;;13.73;;
27489;SDS011;14925;51.026;13.752;2023-03-16T05:09:46;31.77;;;13.93;;
27489;SDS011;14925;51.026;13.752;2023-03-16T05:12:11;24.85;;;14.20;;
27489;SDS011;14925;51.026;13.752;2023-03-16T05:14:39;24.55;;;13.55;;
27489;SDS011;14925;51.026;13.752;2023-03-16T05:17:05;29.80;;;14.32;;
27489;SDS011;14925;51.026;13.752;2023-03-16T05:19:30;29.88;;;14.60;;
27489;SDS011;14925;51.026;13.752;2023-03-16T05:21:56;27.92;;;13.38;;
27489;SDS011;14925;51.026;13.752;2023-03-16T05:24:21;24.30;;;14.30;;
27489;SDS011;14925;51.026;13.752;2023-03-16T05:26:51;33.42;;;15.20;;
27489;SDS011;14925;51.026;13.752;2023-03-16T05:29:19;32.95;;;15.07;;
27489;SDS011;14925;51.026;13.752;2023-03-16T05:31:48;32.38;;;15.40;;
27489;SDS011;14925;51.026;13.752;2023-03-16T05:34:13;32.38;;;16.25;;
27489;SDS011;14925;51.026;13.752;2023-03-16T05:36:47;34.53;;;16.58;;
27489;SDS011;14925;51.026;13.752;2023-03-16T05:39:15;34.88;;;16.95;;
27489;SDS011;14925;51.026;13.752;2023-03-16T05:41:41;34.67;;;16.80;;
27489;SDS011;14925;51.026;13.752;2023-03-16T05:44:07;29.70;;;15.95;;
27489;SDS011;14925;51.026;13.752;2023-03-16T05:46:32;36.15;;;17.15;;
27489;SDS011;14925;51.026;13.752;2023-03-16T05:48:58;32.47;;;16.75;;
27489;SDS011;14925;51.026;13.752;2023-03-16T05:51:26;29.13;;;14.63;;
27489;SDS011;14925;51.026;13.752;2023-03-16T05:53:52;32.20;;;15.88;;
27489;SDS011;14925;51.026;13.752;2023-03-16T05:56:22;27.20;;;14.48;;
27489;SDS011;14925;51.026;13.752;2023-03-16T05:58:52;32.10;;;16.15;;
27489;SDS011;14925;51.026;13.752;2023-03-16T06:01:21;25.17;;;13.75;;
27489;SDS011;14925;51.026;13.752;2023-03-16T06:03:49;25.73;;;14.65;;
27489;SDS011;14925;51.026;13.752;2023-03-16T06:06:18;26.80;;;14.20;;
27489;SDS011;14925;51.026;13.752;2023-03-16T06:08:47;32.90;;;14.35;;
27489;SDS011;14925;51.026;13.752;2023-03-16T06:11:12;28.90;;;14.18;;
27489;SDS011;14925;51.026;13.752;2023-03-16T06:13:38;24.15;;;13.75;;
27489;SDS011;14925;51.026;13.752;2023-03-16T06:16:15;29.15;;;13.60;;
27489;SDS011;14925;51.026;13.752;2023-03-16T06:18:41;26.70;;;13.07;;
27489;SDS011;14925;51.026;13.752;2023-03-16T06:21:09;24.60;;;13.00;;
27489;SDS011;14925;51.026;13.752;2023-03-16T06:23:37;25.38;;;14.75;;
27489;SDS011;14925;51.026;13.752;2023-03-16T06:26:03;25.02;;;14.02;;
27489;SDS011;14925;51.026;13.752;2023-03-16T06:28:32;22.55;;;11.35;;
27489;SDS011;14925;51.026;13.752;2023-03-16T06:31:00;22.60;;;12.00;;
27489;SDS011;14925;51.026;13.752;2023-03-16T06:33:26;19.23;;;11.80;;
27489;SDS011;14925;51.026;13.752;2023-03-16T06:35:51;19.08;;;8.90;;
27489;SDS011;14925;51.026;13.752;2023-03-16T06:38:22;15.63;;;10.23;;
27489;SDS011;14925;51.026;13.752;2023-03-16T06:40:53;18.77;;;10.25;;
27489;SDS011;14925;51.026;13.752;2023-03-16T06:43:19;18.80;;;10.05;;
27489;SDS011;14925;51.026;13.752;2023-03-16T06:45:44;17.05;;;9.63;;
27489;SDS011;14925;51.026;13.752;2023-03-16T06:48:10;12.82;;;8.82;;
27489;SDS011;14925;51.026;13.752;2023-03-16T06:50:35;16.42;;;10.18;;
27489;SDS011;14925;51.026;13.752;2023-03-16T06:53:03;19.23;;;11.27;;
27489;SDS011;14925;51.026;13.752;2023-03-16T06:55:29;24.42;;;13.57;;
27489;SDS011;14925;51.026;13.752;2023-03-16T06:57:55;16.30;;;9.38;;
27489;SDS011;14925;51.026;13.752;2023-03-16T07:00:21;13.25;;;7.40;;
27489;SDS011;14925;51.026;13.752;2023-03-16T07:02:46;14.95;;;7.47;;
27489;SDS011;14925;51.026;13.752;2023-03-16T07:05:18;13.88;;;7.72;;
27489;SDS011;14925;51.026;13.752;2023-03-16T07:07:43;15.65;;;8.45;;
27489;SDS011;14925;51.026;13.752;2023-03-16T07:10:12;13.45;;;7.40;;
27489;SDS011;14925;51.026;13.752;2023-03-16T07:12:39;14.73;;;7.75;;
27489;SDS011;14925;51.026;13.752;2023-03-16T07:15:09;14.10;;;7.88;;
27489;SDS011;14925;51.026;13.752;2023-03-16T07:17:35;13.63;;;7.57;;
27489;SDS011;14925;51.026;13.752;2023-03-16T07:20:04;12.02;;;6.80;;
27489;SDS011;14925;51.026;13.752;2023-03-16T07:22:34;12.75;;;7.28;;
27489;SDS011;14925;51.026;13.752;2023-03-16T07:25:02;13.05;;;7.85;;
27489;SDS011;14925;51.026;13.752;2023-03-16T07:27:28;14.38;;;8.05;;
27489;SDS011;14925;51.026;13.752;2023-03-16T07:29:53;14.07;;;7.30;;
27489;SDS011;14925;51.026;13.752;2023-03-16T07:32:19;15.73;;;7.10;;
27489;SDS011;14925;51.026;13.752;2023-03-16T07:34:48;13.35;;;7.30;;
27489;SDS011;14925;51.026;13.752;2023-03-16T07:37:13;18.42;;;9.65;;
27489;SDS011;14925;51.026;13.752;2023-03-16T07:39:41;15.43;;;8.05;;
27489;SDS011;14925;51.026;13.752;2023-03-16T07:42:08;15.35;;;7.82;;
27489;SDS011;14925;51.026;13.752;2023-03-16T07:44:33;14.27;;;7.38;;
27489;SDS011;14925;51.026;13.752;2023-03-16T07:46:59;17.65;;;8.05;;
27489;SDS011;14925;51.026;13.752;2023-03-16T07:49:24;10.15;;;6.70;;
27489;SDS011;14925;51.026;13.752;2023-03-16T07:51:59;12.25;;;7.28;;
27489;SDS011;14925;51.026;13.752;2023-03-16T07:54:24;13.55;;;6.88;;
27489;SDS011;14925;51.026;13.752;2023-03-16T07:56:50;18.40;;;7.70;;
27489;SDS011;14925;51.026;13.752;2023-03-16T07:59:18;18.48;;;7.65;;
27489;SDS011;14925;51.026;13.752;2023-03-16T08:01:45;12.27;;;7.15;;
27489;SDS011;14925;51.026;13.752;2023-03-16T08:04:10;17.75;;;8.13;;
27489;SDS011;14925;51.026;13.752;2023-03-16T08:06:48;17.75;;;8.63;;
27489;SDS011;14925;51.026;13.752;2023-03-16T08:09:24;16.27;;;7.10;;
27489;SDS011;14925;51.026;13.752;2023-03-16T08:11:52;20.17;;;8.77;;
27489;SDS011;14925;51.026;13.752;2023-03-16T08:14:18;18.48;;;8.85;;
27489;SDS011;14925;51.026;13.752;2023-03-16T08:16:52;19.98;;;9.43;;
27489;SDS011;14925;51.026;13.752;2023-03-16T08:19:19;16.00;;;8.18;;
27489;SDS011;14925;51.026;13.752;2023-03-16T08:21:48;18.63;;;9.93;;
27489;SDS011;14925;51.026;13.752;2023-03-16T08:24:15;22.80;;;10.13;;
27489;SDS011;14925;51.026;13.752;2023-03-16T08:26:41;20.13;;;9.73;;
27489;SDS011;14925;51.026;13.752;2023-03-16T08:29:06;22.85;;;10.55;;
27489;SDS011;14925;51.026;13.752;2023-03-16T08:31:32;16.88;;;9.15;;
27489;SDS011;14925;51.026;13.752;2023-03-16T08:34:02;22.25;;;9.05;;
27489;SDS011;14925;51.026;13.752;2023-03-16T08:36:30;13.65;;;6.75;;
27489;SDS011;14925;51.026;13.752;2023-03-16T08:38:58;17.25;;;7.43;;
27489;SDS011;14925;51.026;13.752;2023-03-16T08:41:25;16.10;;;6.88;;
27489;SDS011;14925;51.026;13.752;2023-03-16T08:43:55;18.52;;;6.47;;
27489;SDS011;14925;51.026;13.752;2023-03-16T08:46:23;14.85;;;6.13;;
27489;SDS011;14925;51.026;13.752;2023-03-16T08:48:54;21.15;;;6.07;;
27489;SDS011;14925;51.026;13.752;2023-03-16T08:51:25;18.38;;;5.90;;
27489;SDS011;14925;51.026;13.752;2023-03-16T08:53:53;14.45;;;5.38;;
27489;SDS011;14925;51.026;13.752;2023-03-16T08:56:19;13.15;;;5.22;;
27489;SDS011;14925;51.026;13.752;2023-03-16T08:58:45;18.58;;;5.75;;
27489;SDS011;14925;51.026;13.752;2023-03-16T09:01:15;15.35;;;5.50;;
27489;SDS011;14925;51.026;13.752;2023-03-16T09:03:44;12.77;;;5.30;;
27489;SDS011;14925;51.026;13.752;2023-03-16T09:06:15;13.20;;;5.43;;
27489;SDS011;14925;51.026;13.752;2023-03-16T09:08:44;14.43;;;5.07;;
27489;SDS011;14925;51.026;13.752;2023-03-16T09:11:14;12.98;;;5.53;;
27489;SDS011;14925;51.026;13.752;2023-03-16T09:13:41;14.05;;;5.18;;
27489;SDS011;14925;51.026;13.752;2023-03-16T09:16:10;8.68;;;5.28;;
27489;SDS011;14925;51.026;13.752;2023-03-16T09:18:36;12.20;;;4.93;;
27489;SDS011;14925;51.026;13.752;2023-03-16T09:21:05;12.90;;;3.70;;
27489;SDS011;14925;51.026;13.752;2023-03-16T09:23:32;9.35;;;3.40;;
27489;SDS011;14925;51.026;13.752;2023-03-16T09:25:59;10.70;;;3.55;;
27489;SDS011;14925;51.026;13.752;2023-03-16T09:28:27;8.85;;;3.78;;
27489;SDS011;14925;51.026;13.752;2023-03-16T09:30:57;12.07;;;3.80;;
27489;SDS011;14925;51.026;13.752;2023-03-16T09:33:23;12.88;;;3.75;;
27489;SDS011;14925;51.026;13.752;2023-03-16T09:35:49;13.93;;;3.95;;
27489;SDS011;14925;51.026;13.752;2023-03-16T09:38:17;8.95;;;3.47;;
27489;SDS011;14925;51.026;13.752;2023-03-16T09:41:31;11.90;;;3.08;;
27489;SDS011;14925;51.026;13.752;2023-03-16T09:46:39;13.65;;;3.60;;
27489;SDS011;14925;51.026;13.752;2023-03-16T09:49:07;11.20;;;3.28;;
27489;SDS011;14925;51.026;13.752;2023-03-16T09:54:19;13.45;;;3.10;;
27489;SDS011;14925;51.026;13.752;2023-03-16T10:06:28;11.85;;;2.83;;
27489;SDS011;14925;51.026;13.752;2023-03-16T10:11:48;9.03;;;2.63;;
27489;SDS011;14925;51.026;13.752;2023-03-16T10:14:26;7.88;;;2.60;;
27489;SDS011;14925;51.026;13.752;2023-03-16T10:17:18;7.97;;;2.67;;
27489;SDS011;14925;51.026;13.752;2023-03-16T10:20:04;6.57;;;2.20;;
27489;SDS011;14925;51.026;13.752;2023-03-16T10:28:27;7.47;;;2.17;;
27489;SDS011;14925;51.026;13.752;2023-03-16T10:30:57;10.65;;;2.10;;
27489;SDS011;14925;51.026;13.752;2023-03-16T10:33:27;10.93;;;2.70;;
27489;SDS011;14925;51.026;13.752;2023-03-16T10:39:15;6.55;;;2.28;;
27489;SDS011;14925;51.026;13.752;2023-03-16T10:41:42;8.32;;;2.03;;
27489;SDS011;14925;51.026;13.752;2023-03-16T10:44:25;6.95;;;2.20;;
27489;SDS011;14925;51.026;13.752;2023-03-16T10:47:03;9.43;;;2.08;;
27489;SDS011;14925;51.026;13.752;2023-03-16T10:49:39;9.80;;;2.35;;
27489;SDS011;14925;51.026;13.752;2023-03-16T10:52:53;6.95;;;1.70;;
27489;SDS011;14925;51.026;13.752;2023-03-16T10:55:23;9.70;;;1.85;;
27489;SDS011;14925;51.026;13.752;2023-03-16T10:57:58;9.13;;;1.88;;
27489;SDS011;14925;51.026;13.752;2023-03-16T11:00:28;6.05;;;1.83;;
27489;SDS011;14925;51.026;13.752;2023-03-16T11:03:23;6.13;;;1.70;;
27489;SDS011;14925;51.026;13.752;2023-03-16T11:06:00;7.82;;;1.65;;
27489;SDS011;14925;51.026;13.752;2023-03-16T11:08:32;8.98;;;2.05;;
27489;SDS011;14925;51.026;13.752;2023-03-16T11:10:59;7.32;;;1.50;;
27489;SDS011;14925;51.026;13.752;2023-03-16T11:13:34;2.55;;;1.02;;
27489;SDS011;14925;51.026;13.752;2023-03-16T11:16:23;6.78;;;1.60;;
27489;SDS011;14925;51.026;13.752;2023-03-16T11:18:56;5.72;;;1.30;;
27489;SDS011;14925;51.026;13.752;2023-03-16T11:27:01;6.57;;;1.65;;
27489;SDS011;14925;51.026;13.752;2023-03-16T11:32:21;5.50;;;1.20;;
27489;SDS011;14925;51.026;13.752;2023-03-16T11:34:57;7.45;;;1.60;;
27489;SDS011;14925;51.026;13.752;2023-03-16T11:37:44;6.30;;;1.40;;
27489;SDS011;14925;51.026;13.752;2023-03-16T11:48:36;7.10;;;1.40;;
27489;SDS011;14925;51.026;13.752;2023-03-16T11:52:02;4.40;;;1.20;;
27489;SDS011;14925;51.026;13.752;2023-03-16T11:54:34;5.32;;;1.30;;
27489;SDS011;14925;51.026;13.752;2023-03-16T12:19:36;5.57;;;1.50;;
27489;SDS011;14925;51.026;13.752;2023-03-16T12:22:20;7.35;;;1.48;;
27489;SDS011;14925;51.026;13.752;2023-03-16T12:24:47;6.97;;;1.17;;
27489;SDS011;14925;51.026;13.752;2023-03-16T12:27:15;6.05;;;1.50;;
27489;SDS011;14925;51.026;13.752;2023-03-16T12:29:55;6.57;;;1.90;;
27489;SDS011;14925;51.026;13.752;2023-03-16T12:32:36;5.93;;;1.40;;
27489;SDS011;14925;51.026;13.752;2023-03-16T12:41:36;9.73;;;1.65;;
27489;SDS011;14925;51.026;13.752;2023-03-16T12:46:59;7.80;;;1.80;;
27489;SDS011;14925;51.026;13.752;2023-03-16T12:49:33;7.85;;;1.80;;
27489;SDS011;14925;51.026;13.752;2023-03-16T12:52:08;6.85;;;1.83;;
27489;SDS011;14925;51.026;13.752;2023-03-16T12:54:55;6.25;;;1.75;;
27489;SDS011;14925;51.026;13.752;2023-03-16T12:57:39;4.25;;;1.65;;
27489;SDS011;14925;51.026;13.752;2023-03-16T13:00:09;7.57;;;2.03;;
27489;SDS011;14925;51.026;13.752;2023-03-16T13:02:42;7.07;;;2.40;;
27489;SDS011;14925;51.026;13.752;2023-03-16T13:05:27;4.90;;;2.00;;
27489;SDS011;14925;51.026;13.752;2023-03-16T13:08:14;6.43;;;1.77;;
27489;SDS011;14925;51.026;13.752;2023-03-16T13:10:41;6.07;;;1.50;;
27489;SDS011;14925;51.026;13.752;2023-03-16T13:13:09;6.57;;;1.50;;
27489;SDS011;14925;51.026;13.752;2023-03-16T13:15:39;7.93;;;1.60;;
27489;SDS011;14925;51.026;13.752;2023-03-16T13:23:44;7.25;;;1.70;;
27489;SDS011;14925;51.026;13.752;2023-03-16T13:28:58;5.22;;;1.88;;
27489;SDS011;14925;51.026;13.752;2023-03-16T13:31:44;4.30;;;1.80;;
27489;SDS011;14925;51.026;13.752;2023-03-16T13:34:22;6.78;;;2.10;;
27489;SDS011;14925;51.026;13.752;2023-03-16T13:36:53;5.53;;;2.15;;
27489;SDS011;14925;51.026;13.752;2023-03-16T13:39:31;4.03;;;1.90;;
27489;SDS011;14925;51.026;13.752;2023-03-16T13:44:26;5.03;;;1.95;;
27489;SDS011;14925;51.026;13.752;2023-03-16T13:46:55;5.10;;;2.10;;
27489;SDS011;14925;51.026;13.752;2023-03-16T13:49:21;9.88;;;2.40;;
27489;SDS011;14925;51.026;13.752;2023-03-16T13:51:52;7.30;;;2.38;;
27489;SDS011;14925;51.026;13.752;2023-03-16T13:54:22;8.32;;;2.30;;
27489;SDS011;14925;51.026;13.752;2023-03-16T13:56:54;7.75;;;2.13;;
27489;SDS011;14925;51.026;13.752;2023-03-16T13:59:21;7.65;;;1.80;;
27489;SDS011;14925;51.026;13.752;2023-03-16T14:01:57;9.70;;;2.05;;
27489;SDS011;14925;51.026;13.752;2023-03-16T14:04:26;8.32;;;2.10;;
27489;SDS011;14925;51.026;13.752;2023-03-16T14:06:57;7.75;;;1.95;;
27489;SDS011;14925;51.026;13.752;2023-03-16T14:09:28;6.82;;;2.22;;
27489;SDS011;14925;51.026;13.752;2023-03-16T14:11:56;10.10;;;2.40;;
27489;SDS011;14925;51.026;13.752;2023-03-16T14:14:29;5.40;;;2.03;;
27489;SDS011;14925;51.026;13.752;2023-03-16T14:17:02;5.25;;;1.80;;
27489;SDS011;14925;51.026;13.752;2023-03-16T14:22:11;4.97;;;1.80;;
27489;SDS011;14925;51.026;13.752;2023-03-16T14:24:37;8.18;;;2.30;;
27489;SDS011;14925;51.026;13.752;2023-03-16T14:27:17;7.63;;;2.47;;
27489;SDS011;14925;51.026;13.752;2023-03-16T14:30:32;6.30;;;2.40;;
27489;SDS011;14925;51.026;13.752;2023-03-16T14:32:41;8.13;;;2.53;;
27489;SDS011;14925;51.026;13.752;2023-03-16T14:35:16;5.30;;;2.05;;
27489;SDS011;14925;51.026;13.752;2023-03-16T14:37:45;7.18;;;2.15;;
27489;SDS011;14925;51.026;13.752;2023-03-16T14:40:36;5.97;;;2.35;;
27489;SDS011;14925;51.026;13.752;2023-03-16T14:43:01;7.97;;;1.98;;
27489;SDS011;14925;51.026;13.752;2023-03-16T14:45:30;5.32;;;2.00;;
27489;SDS011;14925;51.026;13.752;2023-03-16T14:48:02;6.10;;;2.05;;
27489;SDS011;14925;51.026;13.752;2023-03-16T14:50:32;8.15;;;2.30;;
27489;SDS011;14925;51.026;13.752;2023-03-16T14:53:01;9.57;;;2.60;;
27489;SDS011;14925;51.026;13.752;2023-03-16T14:55:30;7.80;;;3.30;;
27489;SDS011;14925;51.026;13.752;2023-03-16T14:57:59;10.27;;;3.58;;
27489;SDS011;14925;51.026;13.752;2023-03-16T15:00:25;6.35;;;2.65;;
27489;SDS011;14925;51.026;13.752;2023-03-16T15:05:47;10.07;;;3.20;;
27489;SDS011;14925;51.026;13.752;2023-03-16T15:10:46;9.52;;;3.28;;
27489;SDS011;14925;51.026;13.752;2023-03-16T15:13:12;7.85;;;3.67;;
27489;SDS011;14925;51.026;13.752;2023-03-16T15:15:41;9.68;;;3.78;;
27489;SDS011;14925;51.026;13.752;2023-03-16T15:18:06;8.05;;;3.67;;
27489;SDS011;14925;51.026;13.752;2023-03-16T15:20:40;8.65;;;3.40;;
27489;SDS011;14925;51.026;13.752;2023-03-16T15:23:13;6.55;;;2.85;;
27489;SDS011;14925;51.026;13.752;2023-03-16T15:25:40;6.30;;;3.67;;
27489;SDS011;14925;51.026;13.752;2023-03-16T15:28:18;11.73;;;3.80;;
27489;SDS011;14925;51.026;13.752;2023-03-16T15:30:51;9.73;;;4.00;;
27489;SDS011;14925;51.026;13.752;2023-03-16T15:33:18;10.45;;;4.60;;
27489;SDS011;14925;51.026;13.752;2023-03-16T15:35:45;9.77;;;4.13;;
27489;SDS011;14925;51.026;13.752;2023-03-16T15:38:15;11.95;;;4.30;;
27489;SDS011;14925;51.026;13.752;2023-03-16T15:40:43;8.80;;;4.07;;
27489;SDS011;14925;51.026;13.752;2023-03-16T15:43:12;9.45;;;4.45;;
27489;SDS011;14925;51.026;13.752;2023-03-16T15:45:42;8.57;;;3.83;;
27489;SDS011;14925;51.026;13.752;2023-03-16T15:48:08;11.95;;;4.55;;
27489;SDS011;14925;51.026;13.752;2023-03-16T15:50:40;12.48;;;4.57;;
27489;SDS011;14925;51.026;13.752;2023-03-16T15:56:10;8.20;;;3.55;;
27489;SDS011;14925;51.026;13.752;2023-03-16T15:58:53;7.57;;;3.97;;
27489;SDS011;14925;51.026;13.752;2023-03-16T16:01:25;11.80;;;4.38;;
27489;SDS011;14925;51.026;13.752;2023-03-16T16:03:54;11.93;;;4.80;;
27489;SDS011;14925;51.026;13.752;2023-03-16T16:06:20;11.23;;;4.38;;
27489;SDS011;14925;51.026;13.752;2023-03-16T16:08:50;9.90;;;4.18;;
27489;SDS011;14925;51.026;13.752;2023-03-16T16:11:18;16.27;;;4.68;;
27489;SDS011;14925;51.026;13.752;2023-03-16T16:13:46;8.50;;;3.97;;
27489;SDS011;14925;51.026;13.752;2023-03-16T16:16:12;8.32;;;4.43;;
27489;SDS011;14925;51.026;13.752;2023-03-16T16:18:42;8.38;;;4.45;;
27489;SDS011;14925;51.026;13.752;2023-03-16T16:21:13;10.13;;;4.30;;
27489;SDS011;14925;51.026;13.752;2023-03-16T16:23:58;11.30;;;4.63;;